Time,TemperatureF,DewpointF,PressureIn,WindDirection,WindDirectionDegrees,WindSpeedMPH,WindSpeedGustMPH,Humidity,HourlyPrecipIn,Conditions,Clouds,dailyrainin,SoftwareType,DateUTC
2015-07-07 00:02:00,78.4,58.4,0.00,North,0,0.0,0.0,50,0.00,,SKC,0.00,VWS V14.01,2015-07-07 04:02:00,
2015-07-07 00:07:00,79.0,58.9,0.00,North,0,0.0,0.0,50,0.00,,SKC,0.00,VWS V14.01,2015-07-07 04:07:00,
2015-07-07 00:12:00,79.3,59.2,0.00,North,0,0.0,0.0,50,0.00,,SKC,0.00,VWS V14.01,2015-07-07 04:12:00,
2015-07-07 00:17:00,79.3,59.2,0.00,North,0,0.0,0.0,50,0.00,,SKC,0.00,VWS V14.01,2015-07-07 04:17:00,
2015-07-07 00:22:00,79.3,59.2,0.00,North,0,0.0,0.0,50,0.00,,SKC,0.00,VWS V14.01,2015-07-07 04:22:00,
2015-07-07 00:27:00,79.3,59.2,0.00,North,0,0.0,0.0,50,0.00,,SKC,0.00,VWS V14.01,2015-07-07 04:27:00,
2015-07-07 00:32:00,79.0,58.9,0.00,North,0,0.0,0.0,50,0.00,,SKC,0.00,VWS V14.01,2015-07-07 04:32:00,
2015-07-07 00:37:00,79.0,59.9,0.00,North,0,0.0,0.0,52,0.00,,SKC,0.00,VWS V14.01,2015-07-07 04:37:00,
2015-07-07 00:43:00,78.8,59.8,0.00,North,0,0.0,0.0,52,0.00,,SKC,0.00,VWS V14.01,2015-07-07 04:43:00,
2015-07-07 00:48:00,78.8,60.7,0.00,North,0,0.0,0.0,54,0.00,,SKC,0.00,VWS V14.01,2015-07-07 04:48:00,
2015-07-07 00:53:00,78.6,61.5,0.00,North,0,0.0,0.0,56,0.00,,SKC,0.00,VWS V14.01,2015-07-07 04:53:00,
2015-07-07 00:58:00,78.4,61.4,0.00,North,0,0.0,0.0,56,0.00,,SKC,0.00,VWS V14.01,2015-07-07 04:58:00,
2015-07-07 01:03:00,78.3,61.2,0.00,North,0,0.0,0.0,56,0.00,,SKC,0.00,VWS V14.01,2015-07-07 05:03:00,
2015-07-07 01:08:00,78.1,61.0,0.00,North,0,0.0,0.0,56,0.00,,SKC,0.00,VWS V14.01,2015-07-07 05:08:00,
2015-07-07 01:13:00,78.1,62.0,0.00,North,0,0.0,0.0,58,0.00,,SKC,0.00,VWS V14.01,2015-07-07 05:13:00,
2015-07-07 01:18:00,78.1,62.0,0.00,North,0,0.0,0.0,58,0.00,,SKC,0.00,VWS V14.01,2015-07-07 05:18:00,
2015-07-07 01:23:00,78.1,62.0,0.00,North,0,0.0,0.0,58,0.00,,SKC,0.00,VWS V14.01,2015-07-07 05:23:00,
2015-07-07 01:28:00,77.4,61.3,0.00,North,0,0.0,0.0,58,0.00,,SKC,0.00,VWS V14.01,2015-07-07 05:28:00,
2015-07-07 01:33:00,76.6,60.6,0.00,North,0,0.0,0.0,58,0.00,,SKC,0.00,VWS V14.01,2015-07-07 05:33:00,
2015-07-07 01:38:00,76.1,61.0,0.00,North,0,0.0,0.0,60,0.00,,SKC,0.00,VWS V14.01,2015-07-07 05:38:00,
2015-07-07 01:43:00,75.7,60.7,0.00,North,0,0.0,0.0,60,0.00,,SKC,0.00,VWS V14.01,2015-07-07 05:43:00,
2015-07-07 01:48:00,76.3,62.0,0.00,North,0,0.0,0.0,61,0.00,,SKC,0.00,VWS V14.01,2015-07-07 05:48:00,
2015-07-07 01:53:00,76.6,62.4,0.00,North,0,0.0,0.0,61,0.00,,SKC,0.00,VWS V14.01,2015-07-07 05:53:00,
2015-07-07 01:58:00,77.2,62.9,0.00,North,0,0.0,0.0,61,0.00,,SKC,0.00,VWS V14.01,2015-07-07 05:58:00,
2015-07-07 02:03:00,77.2,62.9,0.00,North,0,0.0,0.0,61,0.00,,SKC,0.00,VWS V14.01,2015-07-07 06:03:00,
2015-07-07 02:08:00,77.0,61.8,0.00,North,0,0.0,0.0,60,0.00,,SKC,0.00,VWS V14.01,2015-07-07 06:08:00,
2015-07-07 02:13:00,77.2,62.9,0.00,North,0,0.0,0.0,61,0.00,,SKC,0.00,VWS V14.01,2015-07-07 06:13:00,
2015-07-07 02:18:00,77.2,62.9,0.00,North,0,0.0,0.0,61,0.00,,SKC,0.00,VWS V14.01,2015-07-07 06:18:00,
2015-07-07 02:23:00,76.8,62.5,0.00,North,0,0.0,0.0,61,0.00,,SKC,0.00,VWS V14.01,2015-07-07 06:23:00,
2015-07-07 02:28:00,76.3,62.0,0.00,North,0,0.0,0.0,61,0.00,,SKC,0.00,VWS V14.01,2015-07-07 06:28:00,
2015-07-07 02:33:00,75.7,61.5,0.00,North,0,0.0,0.0,61,0.00,,SKC,0.00,VWS V14.01,2015-07-07 06:33:00,
2015-07-07 02:38:00,75.4,62.0,0.00,North,0,0.0,0.0,63,0.00,,SKC,0.00,VWS V14.01,2015-07-07 06:38:00,
2015-07-07 02:43:00,75.2,61.9,0.00,North,0,0.0,0.0,63,0.00,,SKC,0.00,VWS V14.01,2015-07-07 06:43:00,
2015-07-07 02:48:00,75.6,63.8,0.00,North,0,0.0,0.0,67,0.00,,SKC,0.00,VWS V14.01,2015-07-07 06:48:00,
2015-07-07 02:53:00,75.9,64.2,0.00,North,0,0.0,0.0,67,0.00,,SKC,0.00,VWS V14.01,2015-07-07 06:53:00,
2015-07-07 02:58:00,76.6,64.8,0.00,North,0,0.0,0.0,67,0.00,,SKC,0.00,VWS V14.01,2015-07-07 06:58:00,
2015-07-07 03:03:00,76.6,64.8,0.00,North,0,0.0,0.0,67,0.00,,SKC,0.00,VWS V14.01,2015-07-07 07:03:00,
2015-07-07 03:08:00,76.5,63.9,0.00,North,0,0.0,0.0,65,0.00,,SKC,0.00,VWS V14.01,2015-07-07 07:08:00,
2015-07-07 03:13:00,76.6,64.8,0.00,North,0,0.0,0.0,67,0.00,,SKC,0.00,VWS V14.01,2015-07-07 07:13:00,
2015-07-07 03:18:00,76.8,65.0,0.00,North,0,0.0,0.0,67,0.00,,SKC,0.00,VWS V14.01,2015-07-07 07:18:00,
2015-07-07 03:23:00,76.8,64.2,0.00,North,0,0.0,0.0,65,0.00,,SKC,0.00,VWS V14.01,2015-07-07 07:23:00,
2015-07-07 03:28:00,76.3,63.7,0.00,North,0,0.0,0.0,65,0.00,,SKC,0.00,VWS V14.01,2015-07-07 07:28:00,
2015-07-07 03:33:00,75.6,63.0,0.00,North,0,0.0,0.0,65,0.00,,SKC,0.00,VWS V14.01,2015-07-07 07:33:00,
2015-07-07 03:38:00,75.2,63.5,0.00,North,0,0.0,0.0,67,0.00,,SKC,0.00,VWS V14.01,2015-07-07 07:38:00,
2015-07-07 03:43:00,75.0,64.1,0.00,North,0,0.0,0.0,69,0.00,,SKC,0.00,VWS V14.01,2015-07-07 07:43:00,
2015-07-07 03:48:00,74.8,64.7,0.00,North,0,0.0,0.0,71,0.00,,SKC,0.00,VWS V14.01,2015-07-07 07:48:00,
2015-07-07 03:53:00,75.2,65.0,0.00,North,0,0.0,0.0,71,0.00,,SKC,0.00,VWS V14.01,2015-07-07 07:53:00,
2015-07-07 03:58:00,75.6,66.1,0.00,North,0,0.0,0.0,73,0.00,,SKC,0.00,VWS V14.01,2015-07-07 07:58:00,
2015-07-07 04:03:00,75.9,66.5,0.00,North,0,0.0,0.0,73,0.00,,SKC,0.00,VWS V14.01,2015-07-07 08:03:00,
2015-07-07 04:08:00,76.5,67.7,0.00,North,0,0.0,0.0,74,0.00,,SKC,0.00,VWS V14.01,2015-07-07 08:08:00,
2015-07-07 04:13:00,76.6,67.2,0.00,North,0,0.0,0.0,73,0.00,,SKC,0.00,VWS V14.01,2015-07-07 08:13:00,
2015-07-07 04:18:00,76.6,66.4,0.00,North,0,0.0,0.0,71,0.00,,SKC,0.00,VWS V14.01,2015-07-07 08:18:00,
2015-07-07 04:23:00,76.6,66.4,0.00,North,0,0.0,0.0,71,0.00,,SKC,0.00,VWS V14.01,2015-07-07 08:23:00,
2015-07-07 04:28:00,76.3,65.3,0.00,North,0,0.0,0.0,69,0.00,,SKC,0.00,VWS V14.01,2015-07-07 08:28:00,
2015-07-07 04:33:00,75.7,64.8,0.00,North,0,0.0,0.0,69,0.00,,SKC,0.00,VWS V14.01,2015-07-07 08:33:00,
2015-07-07 04:38:00,75.4,65.2,0.00,North,0,0.0,0.0,71,0.00,,SKC,0.00,VWS V14.01,2015-07-07 08:38:00,
2015-07-07 04:43:00,75.0,64.9,0.00,North,0,0.0,0.0,71,0.00,,SKC,0.00,VWS V14.01,2015-07-07 08:43:00,
2015-07-07 04:49:00,74.8,65.4,0.00,North,0,0.0,0.0,73,0.00,,SKC,0.00,VWS V14.01,2015-07-07 08:49:00,
2015-07-07 04:54:00,74.7,66.0,0.00,North,0,0.0,0.0,74,0.00,,SKC,0.00,VWS V14.01,2015-07-07 08:54:00,
2015-07-07 04:59:00,75.0,67.1,0.00,North,0,0.0,0.0,76,0.00,,SKC,0.00,VWS V14.01,2015-07-07 08:59:00,
2015-07-07 05:04:00,75.6,67.6,0.00,North,0,0.0,0.0,76,0.00,,SKC,0.00,VWS V14.01,2015-07-07 09:04:00,
2015-07-07 05:09:00,75.7,67.7,0.00,North,0,0.0,0.0,76,0.00,,SKC,0.00,VWS V14.01,2015-07-07 09:09:00,
2015-07-07 05:14:00,75.9,67.9,0.00,North,0,0.0,0.0,76,0.00,,SKC,0.00,VWS V14.01,2015-07-07 09:14:00,
2015-07-07 05:19:00,76.3,68.3,0.00,North,0,0.0,0.0,76,0.00,,SKC,0.00,VWS V14.01,2015-07-07 09:19:00,
2015-07-07 05:24:00,76.5,68.4,0.00,North,0,0.0,0.0,76,0.00,,SKC,0.00,VWS V14.01,2015-07-07 09:24:00,
2015-07-07 05:29:00,76.3,67.6,0.00,North,0,0.0,0.0,74,0.00,,SKC,0.00,VWS V14.01,2015-07-07 09:29:00,
2015-07-07 05:34:00,75.7,66.3,0.00,North,0,0.0,0.0,73,0.00,,SKC,0.00,VWS V14.01,2015-07-07 09:34:00,
2015-07-07 05:39:00,75.2,65.8,0.00,North,0,0.0,0.0,73,0.00,,SKC,0.00,VWS V14.01,2015-07-07 09:39:00,
2015-07-07 05:44:00,74.8,66.9,0.00,North,0,0.0,0.0,76,0.00,,SKC,0.00,VWS V14.01,2015-07-07 09:44:00,
2015-07-07 05:49:00,74.5,66.5,0.00,North,0,0.0,0.0,76,0.00,,SKC,0.00,VWS V14.01,2015-07-07 09:49:00,
2015-07-07 05:54:00,74.3,66.3,0.00,North,0,0.0,0.0,76,0.00,,SKC,0.00,VWS V14.01,2015-07-07 09:54:00,
2015-07-07 05:59:00,74.3,67.1,0.00,North,0,0.0,0.0,78,0.00,,SKC,0.00,VWS V14.01,2015-07-07 09:59:00,
2015-07-07 06:04:00,74.1,66.9,0.00,North,0,0.0,0.0,78,0.00,,SKC,0.00,VWS V14.01,2015-07-07 10:04:00,
2015-07-07 06:09:00,74.3,67.7,0.00,North,0,0.0,0.0,80,0.00,,SKC,0.00,VWS V14.01,2015-07-07 10:09:00,
2015-07-07 06:14:00,74.8,68.9,0.00,North,0,0.0,0.0,82,0.00,,SKC,0.00,VWS V14.01,2015-07-07 10:14:00,
2015-07-07 06:19:00,75.4,69.4,0.00,North,0,0.0,0.0,82,0.00,,SKC,0.00,VWS V14.01,2015-07-07 10:19:00,
2015-07-07 06:24:00,75.2,68.6,0.00,North,0,0.0,0.0,80,0.00,,SKC,0.00,VWS V14.01,2015-07-07 10:24:00,
2015-07-07 06:29:00,74.8,68.9,0.00,North,0,0.0,0.0,82,0.00,,SKC,0.00,VWS V14.01,2015-07-07 10:29:00,
2015-07-07 06:34:00,74.5,68.6,0.00,North,0,0.0,0.0,82,0.00,,SKC,0.00,VWS V14.01,2015-07-07 10:34:00,
2015-07-07 06:39:00,74.3,68.4,0.00,North,0,0.0,0.0,82,0.00,,SKC,0.00,VWS V14.01,2015-07-07 10:39:00,
2015-07-07 06:44:00,74.1,68.2,0.00,North,0,0.0,0.0,82,0.00,,SKC,0.00,VWS V14.01,2015-07-07 10:44:00,
2015-07-07 06:49:00,74.1,68.2,0.00,North,0,0.0,0.0,82,0.00,,SKC,0.00,VWS V14.01,2015-07-07 10:49:00,
2015-07-07 06:54:00,73.9,68.7,0.00,North,0,0.0,0.0,84,0.00,,SKC,0.00,VWS V14.01,2015-07-07 10:54:00,
2015-07-07 06:59:00,73.9,68.7,0.00,North,0,0.0,0.0,84,0.00,,SKC,0.00,VWS V14.01,2015-07-07 10:59:00,
2015-07-07 07:04:00,73.9,68.7,0.00,North,0,0.0,0.0,84,0.00,,SKC,0.00,VWS V14.01,2015-07-07 11:04:00,
2015-07-07 07:14:00,74.1,69.5,0.00,North,0,0.0,0.0,86,0.00,,SKC,0.00,VWS V14.01,2015-07-07 11:14:00,
2015-07-07 07:19:00,74.1,70.2,0.00,North,0,0.0,0.0,87,42.27,,SKC,42.27,VWS V14.01,2015-07-07 11:19:00,
2015-07-07 07:24:00,74.1,70.2,0.00,North,0,0.0,0.0,87,42.27,,SKC,42.27,VWS V14.01,2015-07-07 11:24:00,
2015-07-07 07:29:00,74.3,70.9,0.00,North,0,0.0,0.0,89,42.27,,SKC,42.27,VWS V14.01,2015-07-07 11:29:00,
2015-07-07 07:34:00,74.3,71.6,0.00,North,0,0.0,0.0,91,42.27,,SKC,42.27,VWS V14.01,2015-07-07 11:34:00,
2015-07-07 07:39:00,74.5,71.7,0.00,North,0,0.0,0.0,91,42.27,,SKC,42.27,VWS V14.01,2015-07-07 11:39:00,
2015-07-07 07:44:00,74.7,72.5,0.00,North,0,0.0,0.0,93,42.27,,SKC,42.27,VWS V14.01,2015-07-07 11:44:00,
2015-07-07 07:49:00,74.8,72.7,0.00,North,0,0.0,0.0,93,42.27,,SKC,42.27,VWS V14.01,2015-07-07 11:49:00,
2015-07-07 07:54:00,75.0,73.4,0.00,North,0,0.0,0.0,95,42.27,,SKC,42.27,VWS V14.01,2015-07-07 11:54:00,
2015-07-07 07:59:00,75.0,73.4,0.00,North,0,0.0,0.0,95,42.27,,SKC,42.27,VWS V14.01,2015-07-07 11:59:00,
2015-07-07 08:04:00,75.2,73.6,0.00,North,0,0.0,0.0,95,42.27,,SKC,42.27,VWS V14.01,2015-07-07 12:04:00,
2015-07-07 08:09:00,75.2,73.6,0.00,North,0,0.0,0.0,95,42.27,,SKC,42.27,VWS V14.01,2015-07-07 12:09:00,
2015-07-07 08:14:00,75.4,73.8,0.00,North,0,0.0,0.0,95,42.27,,SKC,42.27,VWS V14.01,2015-07-07 12:14:00,
2015-07-07 08:19:00,75.4,73.8,0.00,North,0,0.0,0.0,95,0.00,,SKC,42.27,VWS V14.01,2015-07-07 12:19:00,
2015-07-07 08:24:00,75.6,74.0,0.00,North,0,0.0,0.0,95,0.00,,SKC,42.27,VWS V14.01,2015-07-07 12:24:00,
2015-07-07 08:29:00,75.7,73.6,0.00,North,0,0.0,0.0,93,0.00,,SKC,42.27,VWS V14.01,2015-07-07 12:29:00,
2015-07-07 08:34:00,75.7,73.6,0.00,North,0,0.0,0.0,93,0.00,,SKC,42.27,VWS V14.01,2015-07-07 12:34:00,
2015-07-07 08:39:00,75.6,72.8,0.00,North,0,0.0,0.0,91,0.00,,SKC,42.27,VWS V14.01,2015-07-07 12:39:00,
2015-07-07 08:44:00,75.6,72.8,0.00,North,0,0.0,0.0,91,0.00,,SKC,42.27,VWS V14.01,2015-07-07 12:44:00,
2015-07-07 08:49:00,75.6,72.8,0.00,North,0,0.0,0.0,91,0.00,,SKC,42.27,VWS V14.01,2015-07-07 12:49:00,
2015-07-07 08:54:00,75.7,73.6,0.00,North,0,0.0,0.0,93,0.00,,SKC,42.27,VWS V14.01,2015-07-07 12:54:00,
2015-07-07 08:59:00,75.9,73.8,0.00,North,0,0.0,0.0,93,0.00,,SKC,42.27,VWS V14.01,2015-07-07 12:59:00,
2015-07-07 09:04:00,76.1,73.3,0.00,North,0,0.0,0.0,91,0.00,,SKC,42.27,VWS V14.01,2015-07-07 13:04:00,
2015-07-07 09:09:00,76.3,73.5,0.00,North,0,0.0,0.0,91,0.00,,SKC,42.27,VWS V14.01,2015-07-07 13:09:00,
2015-07-07 09:14:00,76.6,73.2,0.00,North,0,0.0,0.0,89,0.00,,SKC,42.27,VWS V14.01,2015-07-07 13:14:00,
2015-07-07 09:20:00,76.8,73.4,0.00,North,0,0.0,0.0,89,0.00,,SKC,42.27,VWS V14.01,2015-07-07 13:20:00,
2015-07-07 09:25:00,77.0,73.0,0.00,North,0,0.0,0.0,87,0.00,,SKC,42.27,VWS V14.01,2015-07-07 13:25:00,
2015-07-07 09:30:00,77.0,71.7,0.00,North,0,0.0,0.0,84,0.00,,SKC,42.27,VWS V14.01,2015-07-07 13:30:00,
2015-07-07 09:35:00,77.0,71.7,0.00,North,0,0.0,0.0,84,0.00,,SKC,42.27,VWS V14.01,2015-07-07 13:35:00,
2015-07-07 09:40:00,77.2,71.9,0.00,North,0,0.0,0.0,84,0.00,,SKC,42.27,VWS V14.01,2015-07-07 13:40:00,
2015-07-07 09:45:00,77.4,71.4,0.00,North,0,0.0,0.0,82,0.00,,SKC,42.27,VWS V14.01,2015-07-07 13:45:00,
2015-07-07 09:50:00,77.2,70.5,0.00,North,0,0.0,0.0,80,0.00,,SKC,42.27,VWS V14.01,2015-07-07 13:50:00,
2015-07-07 09:55:00,77.0,70.4,0.00,North,0,0.0,0.0,80,0.00,,SKC,42.27,VWS V14.01,2015-07-07 13:55:00,
2015-07-07 10:00:00,76.8,70.2,0.00,North,0,0.0,0.0,80,0.00,,SKC,42.27,VWS V14.01,2015-07-07 14:00:00,
2015-07-07 10:05:00,77.0,70.4,0.00,North,0,0.0,0.0,80,0.00,,SKC,42.27,VWS V14.01,2015-07-07 14:05:00,
2015-07-07 10:10:00,77.2,70.5,0.00,North,0,0.0,0.0,80,0.00,,SKC,42.27,VWS V14.01,2015-07-07 14:10:00,
2015-07-07 10:15:00,77.5,70.2,0.00,North,0,0.0,0.0,78,0.00,,SKC,42.27,VWS V14.01,2015-07-07 14:15:00,
2015-07-07 10:20:00,77.7,70.4,0.00,North,0,0.0,0.0,78,0.00,,SKC,42.27,VWS V14.01,2015-07-07 14:20:00,
2015-07-07 10:25:00,77.7,70.4,0.00,North,0,0.0,0.0,78,0.00,,SKC,42.27,VWS V14.01,2015-07-07 14:25:00,
2015-07-07 10:30:00,77.7,69.7,0.00,North,0,0.0,0.0,76,0.00,,SKC,42.27,VWS V14.01,2015-07-07 14:30:00,
2015-07-07 10:35:00,77.9,70.5,0.00,North,0,0.0,0.0,78,0.00,,SKC,42.27,VWS V14.01,2015-07-07 14:35:00,
2015-07-07 10:40:00,78.4,70.3,0.00,North,0,0.0,0.0,76,0.00,,SKC,42.27,VWS V14.01,2015-07-07 14:40:00,
2015-07-07 10:45:00,78.8,70.0,0.00,North,0,0.0,0.0,74,0.00,,SKC,42.27,VWS V14.01,2015-07-07 14:45:00,
2015-07-07 10:50:00,78.6,69.8,0.00,North,0,0.0,0.0,74,0.00,,SKC,42.27,VWS V14.01,2015-07-07 14:50:00,
2015-07-07 10:55:00,78.6,69.1,0.00,North,0,0.0,0.0,73,0.00,,SKC,42.27,VWS V14.01,2015-07-07 14:55:00,
2015-07-07 11:00:00,78.4,68.9,0.00,North,0,0.0,0.0,73,0.00,,SKC,42.27,VWS V14.01,2015-07-07 15:00:00,
2015-07-07 11:10:00,76.8,68.8,0.00,North,0,0.0,0.0,76,0.00,,SKC,42.27,VWS V14.01,2015-07-07 15:10:00,
2015-07-07 11:15:00,76.3,69.0,0.00,North,0,0.0,0.0,78,0.00,,SKC,42.27,VWS V14.01,2015-07-07 15:15:00,
2015-07-07 11:20:00,76.1,69.5,0.00,North,0,0.0,0.0,80,0.00,,SKC,42.27,VWS V14.01,2015-07-07 15:20:00,
2015-07-07 11:25:00,75.9,70.0,0.00,North,0,0.0,0.0,82,0.00,,SKC,42.27,VWS V14.01,2015-07-07 15:25:00,
2015-07-07 11:30:00,76.1,70.8,0.00,North,0,0.0,0.0,84,0.00,,SKC,42.27,VWS V14.01,2015-07-07 15:30:00,
2015-07-07 11:35:00,75.9,71.9,0.00,North,0,0.0,0.0,87,0.00,,SKC,42.27,VWS V14.01,2015-07-07 15:35:00,
2015-07-07 11:40:00,76.1,73.3,0.00,North,0,0.0,0.0,91,0.00,,SKC,42.27,VWS V14.01,2015-07-07 15:40:00,
2015-07-07 11:45:00,76.5,74.9,0.00,North,0,0.0,0.0,95,0.00,,SKC,42.27,VWS V14.01,2015-07-07 15:45:00,
2015-07-07 11:50:00,77.2,76.8,0.00,North,0,0.0,0.0,99,0.00,,SKC,42.27,VWS V14.01,2015-07-07 15:50:00,
2015-07-07 11:55:00,77.5,77.1,0.00,North,0,0.0,0.0,99,0.00,,SKC,42.27,VWS V14.01,2015-07-07 15:55:00,
2015-07-07 12:00:00,77.4,77.4,0.00,North,0,0.0,0.0,100,0.00,,SKC,42.27,VWS V14.01,2015-07-07 16:00:00,
2015-07-07 12:05:00,77.2,76.8,0.00,North,0,0.0,0.0,99,0.00,,SKC,0.00,VWS V14.01,2015-07-07 16:05:00,
2015-07-07 12:10:00,76.8,76.8,0.00,North,0,0.0,0.0,100,0.00,,SKC,0.00,VWS V14.01,2015-07-07 16:10:00,
2015-07-07 12:15:00,76.8,76.4,0.00,North,0,0.0,0.0,99,0.00,,SKC,42.27,VWS V14.01,2015-07-07 16:15:00,
2015-07-07 12:20:00,77.0,76.6,0.00,North,0,0.0,0.0,99,0.00,,SKC,42.27,VWS V14.01,2015-07-07 16:20:00,
2015-07-07 12:25:00,77.2,76.2,0.00,North,0,0.0,0.0,97,0.00,,SKC,42.27,VWS V14.01,2015-07-07 16:25:00,
2015-07-07 12:27:00,77.4,76.4,0.00,North,0,0.0,0.0,97,0.00,,SKC,42.27,VWS V14.01,2015-07-07 16:27:00,
2015-07-07 12:32:00,77.9,76.3,0.00,North,0,0.0,0.0,95,0.00,,SKC,42.27,VWS V14.01,2015-07-07 16:32:00,
2015-07-07 12:37:00,78.3,76.1,0.00,North,0,0.0,0.0,93,0.00,,SKC,42.27,VWS V14.01,2015-07-07 16:37:00,
2015-07-07 12:42:00,79.0,76.2,0.00,North,0,0.0,0.0,91,0.00,,SKC,42.27,VWS V14.01,2015-07-07 16:42:00,
2015-07-07 12:52:00,81.0,75.6,0.00,North,0,0.0,0.0,84,0.00,,SKC,0.00,VWS V14.01,2015-07-07 16:52:00,
2015-07-07 12:55:00,81.0,74.2,0.00,North,0,0.0,0.0,80,0.00,,SKC,42.27,VWS V14.01,2015-07-07 16:55:00,
2015-07-07 13:00:00,81.5,73.3,0.00,North,0,0.0,0.0,76,0.00,,SKC,42.27,VWS V14.01,2015-07-07 17:00:00,
2015-07-07 13:03:00,81.7,71.2,0.00,North,0,0.0,0.0,71,0.00,,SKC,42.27,VWS V14.01,2015-07-07 17:03:00,
2015-07-07 13:05:00,81.7,69.7,0.00,North,0,0.0,0.0,67,0.00,,SKC,0.00,VWS V14.01,2015-07-07 17:05:00,
2015-07-07 13:10:00,81.1,66.6,0.00,North,0,0.0,0.0,61,0.00,,SKC,42.27,VWS V14.01,2015-07-07 17:10:00,
2015-07-07 13:15:00,80.8,65.4,0.00,North,0,0.0,0.0,60,0.00,,SKC,42.27,VWS V14.01,2015-07-07 17:15:00,
2015-07-07 13:20:00,80.1,65.6,0.00,North,0,0.0,0.0,61,0.00,,SKC,42.27,VWS V14.01,2015-07-07 17:20:00,
2015-07-07 13:25:00,79.7,66.1,0.00,North,0,0.0,0.0,63,0.00,,SKC,42.27,VWS V14.01,2015-07-07 17:25:00,
2015-07-07 13:30:00,80.2,67.5,0.00,North,0,0.0,0.0,65,0.00,,SKC,42.27,VWS V14.01,2015-07-07 17:30:00,
2015-07-07 13:35:00,80.2,66.6,0.00,North,0,0.0,0.0,63,0.00,,SKC,42.27,VWS V14.01,2015-07-07 17:35:00,
2015-07-07 13:40:00,80.2,65.8,0.00,North,0,0.0,0.0,61,0.00,,SKC,42.27,VWS V14.01,2015-07-07 17:40:00,
2015-07-07 13:45:00,80.1,64.7,0.00,North,0,0.0,0.0,60,0.00,,SKC,42.27,VWS V14.01,2015-07-07 17:45:00,
2015-07-07 13:55:00,79.3,64.9,0.00,North,0,0.0,0.0,61,0.00,,SKC,42.27,VWS V14.01,2015-07-07 17:55:00,
2015-07-07 14:00:00,79.0,64.6,0.00,North,0,0.0,0.0,61,0.00,,SKC,42.27,VWS V14.01,2015-07-07 18:00:00,
2015-07-07 14:05:00,78.6,64.2,0.00,North,0,0.0,0.0,61,0.00,,SKC,42.27,VWS V14.01,2015-07-07 18:05:00,
2015-07-07 14:10:00,78.4,64.9,0.00,North,0,0.0,0.0,63,0.00,,SKC,42.27,VWS V14.01,2015-07-07 18:10:00,
2015-07-07 14:15:00,78.3,65.6,0.00,North,0,0.0,0.0,65,0.00,,SKC,42.27,VWS V14.01,2015-07-07 18:15:00,
2015-07-07 14:20:00,78.1,65.4,0.00,North,0,0.0,0.0,65,0.00,,SKC,0.00,VWS V14.01,2015-07-07 18:20:00,
2015-07-07 14:25:00,77.9,65.2,0.00,North,0,0.0,0.0,65,0.00,,SKC,42.27,VWS V14.01,2015-07-07 18:25:00,
2015-07-07 14:30:00,77.7,65.9,0.00,North,0,0.0,0.0,67,0.00,,SKC,42.27,VWS V14.01,2015-07-07 18:30:00,
2015-07-07 14:35:00,77.7,65.9,0.00,North,0,0.0,0.0,67,0.00,,SKC,42.27,VWS V14.01,2015-07-07 18:35:00,
2015-07-07 14:40:00,77.7,66.7,0.00,North,0,0.0,0.0,69,0.00,,SKC,42.27,VWS V14.01,2015-07-07 18:40:00,
2015-07-07 14:45:00,77.9,66.8,0.00,North,0,0.0,0.0,69,0.00,,SKC,42.27,VWS V14.01,2015-07-07 18:45:00,
2015-07-07 14:50:00,78.1,67.8,0.00,North,0,0.0,0.0,71,0.00,,SKC,42.27,VWS V14.01,2015-07-07 18:50:00,
2015-07-07 14:55:00,78.1,67.8,0.00,North,0,0.0,0.0,71,0.00,,SKC,42.27,VWS V14.01,2015-07-07 18:55:00,
2015-07-07 15:00:00,78.3,68.0,0.00,North,0,0.0,0.0,71,0.00,,SKC,42.27,VWS V14.01,2015-07-07 19:00:00,
2015-07-07 15:05:00,78.3,67.2,0.00,North,0,0.0,0.0,69,0.00,,SKC,42.27,VWS V14.01,2015-07-07 19:05:00,
2015-07-07 15:10:00,78.1,67.0,0.00,North,0,0.0,0.0,69,0.00,,SKC,42.27,VWS V14.01,2015-07-07 19:10:00,
2015-07-07 15:15:00,78.3,66.4,0.00,North,0,0.0,0.0,67,0.00,,SKC,42.27,VWS V14.01,2015-07-07 19:15:00,
2015-07-07 15:20:00,78.3,65.6,0.00,North,0,0.0,0.0,65,0.00,,SKC,42.27,VWS V14.01,2015-07-07 19:20:00,
2015-07-07 15:25:00,77.9,65.2,0.00,North,0,0.0,0.0,65,0.00,,SKC,42.27,VWS V14.01,2015-07-07 19:25:00,
2015-07-07 15:31:00,77.7,65.1,0.00,North,0,0.0,0.0,65,0.00,,SKC,42.27,VWS V14.01,2015-07-07 19:31:00,
2015-07-07 15:36:00,77.5,65.7,0.00,North,0,0.0,0.0,67,0.00,,SKC,42.27,VWS V14.01,2015-07-07 19:36:00,
2015-07-07 15:41:00,77.5,65.7,0.00,North,0,0.0,0.0,67,0.00,,SKC,42.27,VWS V14.01,2015-07-07 19:41:00,
2015-07-07 15:46:00,77.7,66.7,0.00,North,0,0.0,0.0,69,0.00,,SKC,42.27,VWS V14.01,2015-07-07 19:46:00,
2015-07-07 15:51:00,78.4,68.1,0.00,North,0,0.0,0.0,71,0.00,,SKC,42.27,VWS V14.01,2015-07-07 19:51:00,
2015-07-07 15:56:00,79.3,69.0,0.00,North,0,0.0,0.0,71,0.00,,SKC,42.27,VWS V14.01,2015-07-07 19:56:00,
2015-07-07 16:01:00,79.3,68.2,0.00,North,0,0.0,0.0,69,0.00,,SKC,42.27,VWS V14.01,2015-07-07 20:01:00,
2015-07-07 16:06:00,79.0,67.1,0.00,North,0,0.0,0.0,67,0.00,,SKC,42.27,VWS V14.01,2015-07-07 20:06:00,
2015-07-07 16:11:00,78.6,66.7,0.00,North,0,0.0,0.0,67,0.00,,SKC,42.27,VWS V14.01,2015-07-07 20:11:00,
2015-07-07 16:16:00,78.6,66.7,0.00,North,0,0.0,0.0,67,0.00,,SKC,42.27,VWS V14.01,2015-07-07 20:16:00,
2015-07-07 16:21:00,78.6,67.5,0.00,North,0,0.0,0.0,69,0.00,,SKC,42.27,VWS V14.01,2015-07-07 20:21:00,
2015-07-07 16:26:00,78.6,67.5,0.00,North,0,0.0,0.0,69,0.00,,SKC,42.27,VWS V14.01,2015-07-07 20:26:00,
2015-07-07 16:31:00,78.4,67.4,0.00,North,0,0.0,0.0,69,0.00,,SKC,42.27,VWS V14.01,2015-07-07 20:31:00,
2015-07-07 16:36:00,78.8,67.7,0.00,North,0,0.0,0.0,69,0.00,,SKC,42.27,VWS V14.01,2015-07-07 20:36:00,
2015-07-07 16:41:00,79.3,68.2,0.00,North,0,0.0,0.0,69,0.00,,SKC,42.27,VWS V14.01,2015-07-07 20:41:00,
2015-07-07 16:46:00,79.9,67.9,0.00,North,0,0.0,0.0,67,0.00,,SKC,42.27,VWS V14.01,2015-07-07 20:46:00,
2015-07-07 18:49:00,74.1,67.6,0.00,North,0,0.0,0.0,80,0.00,,SKC,42.27,VWS V14.01,2015-07-07 22:49:00,
2015-07-07 18:54:00,73.8,67.9,0.00,North,0,0.0,0.0,82,0.00,,SKC,42.27,VWS V14.01,2015-07-07 22:54:00,
2015-07-07 19:04:00,73.6,68.3,0.00,North,0,0.0,0.0,84,0.00,,SKC,42.27,VWS V14.01,2015-07-07 23:04:00,
2015-07-07 19:09:00,73.4,68.8,0.00,North,0,0.0,0.0,86,0.00,,SKC,42.27,VWS V14.01,2015-07-07 23:09:00,
2015-07-07 19:19:00,73.4,69.4,0.00,North,0,0.0,0.0,87,0.00,,SKC,42.27,VWS V14.01,2015-07-07 23:19:00,
2015-07-07 19:24:00,73.4,70.1,0.00,North,0,0.0,0.0,89,0.00,,SKC,42.27,VWS V14.01,2015-07-07 23:24:00,
2015-07-07 19:29:00,72.9,69.5,0.00,North,0,0.0,0.0,89,0.00,,SKC,42.27,VWS V14.01,2015-07-07 23:29:00,
2015-07-07 19:34:00,72.5,69.8,0.00,North,0,0.0,0.0,91,0.00,,SKC,42.27,VWS V14.01,2015-07-07 23:34:00,
2015-07-07 19:44:00,72.3,71.9,0.00,North,0,0.0,0.0,99,0.00,,SKC,42.27,VWS V14.01,2015-07-07 23:44:00,
2015-07-07 19:49:00,72.3,72.3,0.00,North,0,0.0,0.0,100,0.00,,SKC,42.27,VWS V14.01,2015-07-07 23:49:00,